»·PEaware :: TPX101 KSNA-KIFP

TPX101 :: KSNA-KIFP

FLIGHT INFORMATION

Flight Status: Arrived
Operator: ATP Experience
More flights by this operator :: More flights under this callsign
Pilot: Joe C. (3077)
Aircraft: BOEING 737-800
(B738)
More flights by this aircraft type
Origin: KSNA John Wayne-Orange Co
United States
Destination: KIFP Laughlin/Bullhead Intl
United States
More flights between these airports :: More routes between these airports
Route: +FINZZ2 YELAH
File this flight plan on PilotEdge
Remarks: Training wheels removed. Knee pads and helmet on!
Altitude:
(Current/Filed)
27,000ft
Speed:
(Current/Filed)
305kts
Departed: 14-Jul-18 08:45 PM
Arrived: 14-Jul-18 09:33 PM
Distance/Time
Traveled:
187nm/0:48
Distance/Time
To Go:
Arrived

Flight Plot

Page will automatically refresh every two minutes.

Flight plan parsing failed; only flown route is shown


Map Options




Map Legend


Flown Route
Filed Route
Departure Airport
Arrival Airport
Navaid (VOR, NDB)
Fix

Horizontal Profiles

Position Reports

Time Latitude Longitude Heading Altitude Ground
Speed
14-Jul-18 20:00 33.676087 -117.864382 118 64ft 0kts
14-Jul-18 20:01 33.676087 -117.864382 118 64ft 0kts
14-Jul-18 20:02 33.676087 -117.864382 118 64ft 0kts
14-Jul-18 20:03 33.676087 -117.864382 118 64ft 0kts
14-Jul-18 20:04 33.676087 -117.864382 118 64ft 0kts
14-Jul-18 20:05 33.676087 -117.864382 118 64ft 0kts
14-Jul-18 20:06 33.676087 -117.864382 118 64ft 0kts
14-Jul-18 20:07 33.676087 -117.864382 118 64ft 0kts
14-Jul-18 20:08 33.676087 -117.864382 118 64ft 0kts
14-Jul-18 20:09 33.676087 -117.864382 118 64ft 0kts
14-Jul-18 20:10 33.676087 -117.864382 118 64ft 0kts
14-Jul-18 20:11 33.676087 -117.864382 118 64ft 0kts
14-Jul-18 20:12 33.676087 -117.864382 118 64ft 0kts
14-Jul-18 20:13 33.676087 -117.864382 118 64ft 0kts
14-Jul-18 20:14 33.676087 -117.864382 118 64ft 0kts
14-Jul-18 20:15 33.676087 -117.864382 118 64ft 0kts
14-Jul-18 20:16 33.676220 -117.864679 118 64ft 0kts
14-Jul-18 20:17 33.676220 -117.864679 118 64ft 0kts
14-Jul-18 20:18 33.676220 -117.864679 118 64ft 0kts
14-Jul-18 20:19 33.676220 -117.864679 118 64ft 0kts
14-Jul-18 20:20 33.676220 -117.864679 118 64ft 0kts
14-Jul-18 20:21 33.676340 -117.864990 79 64ft 2kts
14-Jul-18 20:22 33.676207 -117.865160 27 64ft 0kts
14-Jul-18 20:23 33.676207 -117.865159 27 64ft 0kts
14-Jul-18 20:24 33.676207 -117.865159 27 64ft 0kts
14-Jul-18 20:25 33.676207 -117.865159 27 64ft 0kts
14-Jul-18 20:26 33.676395 -117.865039 28 64ft 2kts
14-Jul-18 20:27 33.676715 -117.864823 30 64ft 0kts
14-Jul-18 20:28 33.676715 -117.864823 30 64ft 0kts
14-Jul-18 20:29 33.676729 -117.864813 30 64ft 0kts
14-Jul-18 20:30 33.676730 -117.864813 30 64ft 0kts
14-Jul-18 20:31 33.676730 -117.864813 30 64ft 0kts
14-Jul-18 20:32 33.676730 -117.864813 30 64ft 0kts
14-Jul-18 20:33 33.676730 -117.864813 30 64ft 0kts
14-Jul-18 20:34 33.676730 -117.864813 30 64ft 0kts
14-Jul-18 20:35 33.676730 -117.864813 30 64ft 0kts
14-Jul-18 20:36 33.676730 -117.864813 30 64ft 0kts
14-Jul-18 20:37 33.676730 -117.864813 30 64ft 0kts
14-Jul-18 20:38 33.676730 -117.864813 30 64ft 0kts
14-Jul-18 20:39 33.676730 -117.864813 30 64ft 0kts
14-Jul-18 20:40 33.677211 -117.864484 28 64ft 2kts
14-Jul-18 20:41 33.678871 -117.863447 28 64ft 3kts
14-Jul-18 20:42 33.679084 -117.863308 28 64ft 0kts
14-Jul-18 20:43 33.680558 -117.862897 298 64ft 0kts
14-Jul-18 20:44 33.680566 -117.862915 298 64ft 1kts
14-Jul-18 20:45 33.681299 -117.865272 205 64ft 0kts
14-Jul-18 20:46 33.676098 -117.868550 207 64ft 117kts
14-Jul-18 20:47 33.639964 -117.887469 183 2279ft 159kts
14-Jul-18 20:48 33.592188 -117.899078 177 3729ft 194kts
14-Jul-18 20:49 33.543037 -117.928085 228 4703ft 254kts
14-Jul-18 20:50 33.495247 -117.990725 224 7019ft 273kts
14-Jul-18 20:51 33.461901 -118.062309 280 7585ft 285kts
14-Jul-18 20:52 33.521847 -118.119550 340 9843ft 294kts
14-Jul-18 20:53 33.600417 -118.132760 13 12068ft 300kts
14-Jul-18 20:54 33.681186 -118.090080 38 14051ft 345kts
14-Jul-18 20:55 33.762381 -118.029597 25 17147ft 363kts
14-Jul-18 20:56 33.850356 -117.977277 26 20337ft 365kts
14-Jul-18 20:57 33.942560 -117.928062 24 22211ft 378kts
14-Jul-18 20:58 34.025657 -117.854064 44 24069ft 382kts
14-Jul-18 20:59 34.099478 -117.759347 48 25461ft 398kts
14-Jul-18 21:00 34.172142 -117.658373 49 25695ft 405kts
14-Jul-18 21:01 34.240982 -117.549211 50 26919ft 415kts
14-Jul-18 21:02 34.315195 -117.441880 52 27004ft 414kts
14-Jul-18 21:03 34.388685 -117.336246 40 27058ft 411kts
14-Jul-18 21:04 34.465551 -117.234051 52 26799ft 404kts
14-Jul-18 21:05 34.528120 -117.119700 63 26883ft 405kts
14-Jul-18 21:06 34.574126 -116.995023 67 27090ft 409kts
14-Jul-18 21:07 34.621710 -116.867291 66 27060ft 421kts
14-Jul-18 21:08 34.670901 -116.736469 69 27053ft 430kts
14-Jul-18 21:09 34.718579 -116.602010 65 27081ft 433kts
14-Jul-18 21:10 34.770720 -116.469614 66 26996ft 436kts
14-Jul-18 21:11 34.817388 -116.334972 68 27036ft 435kts
14-Jul-18 21:12 34.866326 -116.199882 67 26990ft 438kts
14-Jul-18 21:13 34.914216 -116.064257 68 26936ft 436kts
14-Jul-18 21:14 34.967088 -115.931064 64 26787ft 434kts
14-Jul-18 21:15 35.012937 -115.795435 67 26714ft 433kts
14-Jul-18 21:16 35.059291 -115.661798 67 25547ft 423kts
14-Jul-18 21:17 35.104901 -115.534591 66 23042ft 410kts
14-Jul-18 21:18 35.146307 -115.408737 66 20741ft 392kts
14-Jul-18 21:19 35.173446 -115.282529 81 18104ft 388kts
14-Jul-18 21:20 35.182359 -115.154866 84 15794ft 376kts
14-Jul-18 21:21 35.218231 -115.038493 61 13800ft 360kts
14-Jul-18 21:22 35.267487 -114.933169 58 12319ft 351kts
14-Jul-18 21:23 35.311912 -114.830034 58 10545ft 338kts
14-Jul-18 21:24 35.354093 -114.737650 64 10051ft 294kts
14-Jul-18 21:25 35.395102 -114.656634 48 9435ft 263kts
14-Jul-18 21:26 35.442354 -114.596471 51 8702ft 224kts
14-Jul-18 21:27 35.430772 -114.543648 166 7826ft 183kts
14-Jul-18 21:28 35.382705 -114.558820 199 6354ft 179kts
14-Jul-18 21:29 35.336982 -114.574875 175 4604ft 172kts
14-Jul-18 21:30 35.292350 -114.569284 179 3280ft 159kts
14-Jul-18 21:31 35.249437 -114.566770 175 2367ft 154kts
14-Jul-18 21:32 35.206450 -114.563749 175 1542ft 156kts
14-Jul-18 21:33 35.163411 -114.560005 175 639ft 150kts
14-Jul-18 21:34 35.151364 -114.558012 68 680ft 8kts
14-Jul-18 21:35 35.153792 -114.557915 354 680ft 14kts
14-Jul-18 21:36 35.158789 -114.558203 357 670ft 23kts
14-Jul-18 21:37 35.163007 -114.557223 85 666ft 4kts
14-Jul-18 21:38 35.164581 -114.556795 16 664ft 8kts
14-Jul-18 21:39 35.164723 -114.556417 86 667ft 0kts
14-Jul-18 21:40 35.164723 -114.556417 86 667ft 0kts
14-Jul-18 21:41 35.164723 -114.556417 86 667ft 0kts
14-Jul-18 21:42 35.164723 -114.556417 86 667ft 0kts
14-Jul-18 21:43 35.164723 -114.556417 86 667ft 0kts
14-Jul-18 21:44 35.164723 -114.556417 86 667ft 0kts
14-Jul-18 21:45 35.164723 -114.556417 86 667ft 0kts
14-Jul-18 21:46 35.164723 -114.556417 86 667ft 0kts
14-Jul-18 21:47 35.164723 -114.556417 86 667ft 0kts
14-Jul-18 21:48 35.164723 -114.556417 86 667ft 0kts

Navigation Log

Ident Type
Flight plan parsing failed, navigation log unavailable